createdAt,value
2017-07-15T00:00:52.059Z,91.90
2017-07-15T00:03:19.495Z,91.90
2017-07-15T00:05:47.769Z,92.20
2017-07-15T00:08:15.267Z,92.10
2017-07-15T00:10:42.797Z,92.20
2017-07-15T00:13:11.780Z,92.40
2017-07-15T00:15:39.445Z,92.40
2017-07-15T00:18:06.979Z,92.20
2017-07-15T00:20:34.622Z,92.20
2017-07-15T00:23:02.289Z,92.20
2017-07-15T00:25:29.904Z,92.20
2017-07-15T00:27:57.574Z,92.20
2017-07-15T00:30:25.015Z,92.20
2017-07-15T00:32:52.481Z,92.20
2017-07-15T00:35:19.994Z,92.30
2017-07-15T00:37:47.667Z,92.20
2017-07-15T00:40:15.402Z,92.20
2017-07-15T00:42:43.075Z,92.20
2017-07-15T00:45:11.478Z,92.30
2017-07-15T00:47:39.367Z,92.30
2017-07-15T00:50:07.119Z,92.20
2017-07-15T00:52:36.250Z,92.20
2017-07-15T00:55:03.852Z,92.20
2017-07-15T00:57:31.290Z,92.10
2017-07-15T00:59:58.980Z,92.20
2017-07-15T01:02:26.579Z,92.10
2017-07-15T01:04:54.020Z,92.30
2017-07-15T01:07:21.446Z,92.10
2017-07-15T01:09:49.665Z,92.00
2017-07-15T01:12:17.203Z,92.00
2017-07-15T01:14:44.636Z,92.20
2017-07-15T01:17:12.826Z,92.10
2017-07-15T01:19:40.256Z,92.10
2017-07-15T01:22:08.463Z,92.10
2017-07-15T01:24:35.890Z,92.00
2017-07-15T01:27:05.119Z,92.00
2017-07-15T01:29:32.539Z,92.00
2017-07-15T01:32:00.752Z,92.20
2017-07-15T01:34:28.180Z,92.10
2017-07-15T01:36:56.377Z,92.20
2017-07-15T01:39:23.805Z,92.10
2017-07-15T01:41:52.007Z,92.30
2017-07-15T01:44:19.440Z,92.30
2017-07-15T01:46:46.863Z,92.20
2017-07-15T01:49:14.289Z,92.40
2017-07-15T01:51:41.736Z,92.10
2017-07-15T01:54:09.159Z,92.30
2017-07-15T01:56:37.370Z,92.20
2017-07-15T01:59:04.787Z,92.20
2017-07-15T02:01:32.991Z,92.20
2017-07-15T02:04:00.505Z,92.10
2017-07-15T02:06:28.717Z,92.20
2017-07-15T02:08:56.255Z,92.20
2017-07-15T02:11:24.456Z,92.20
2017-07-15T02:13:51.892Z,92.20
2017-07-15T02:16:19.346Z,92.00
2017-07-15T02:18:46.800Z,92.00
2017-07-15T02:21:14.987Z,92.20
2017-07-15T02:23:42.413Z,92.10
2017-07-15T02:26:10.617Z,92.10
2017-07-15T02:28:38.140Z,92.10
2017-07-15T02:31:06.350Z,92.00
2017-07-15T02:33:33.784Z,92.00
2017-07-15T02:36:02.015Z,92.20
2017-07-15T02:38:29.441Z,92.20
2017-07-15T02:40:56.877Z,92.20
2017-07-15T02:43:25.074Z,92.20
2017-07-15T02:45:52.500Z,92.10
2017-07-15T02:48:20.706Z,92.50
2017-07-15T02:50:48.191Z,92.50
2017-07-15T02:53:15.630Z,92.40
2017-07-15T02:55:43.079Z,92.30
2017-07-15T02:58:10.516Z,92.60
2017-07-15T03:00:37.943Z,92.30
2017-07-15T03:03:06.140Z,92.60
2017-07-15T03:05:33.582Z,92.30
2017-07-15T03:08:01.788Z,92.50
2017-07-15T03:10:29.217Z,92.50
2017-07-15T03:12:57.412Z,92.20
2017-07-15T03:15:24.888Z,92.20
2017-07-15T03:17:52.325Z,92.40
2017-07-15T03:20:19.745Z,92.30
2017-07-15T03:22:47.941Z,92.40
2017-07-15T03:25:15.381Z,92.40
2017-07-15T03:27:43.581Z,92.50
2017-07-15T03:30:12.021Z,92.40
2017-07-15T03:32:40.221Z,92.60
2017-07-15T03:35:07.661Z,92.30
2017-07-15T03:37:35.865Z,92.20
2017-07-15T03:40:03.345Z,92.20
2017-07-15T03:42:30.782Z,92.20
2017-07-15T03:44:58.206Z,92.30
2017-07-15T03:47:26.400Z,92.20
2017-07-15T03:49:53.996Z,92.20
2017-07-15T03:52:21.430Z,92.10
2017-07-15T03:54:48.860Z,92.10
2017-07-15T03:57:16.300Z,92.00
2017-07-15T03:59:43.740Z,91.90
2017-07-15T04:02:11.175Z,91.90
2017-07-15T04:04:38.610Z,91.90
2017-07-15T04:07:06.045Z,91.90
2017-07-15T04:09:33.480Z,91.90
2017-07-15T04:12:01.674Z,91.90
2017-07-15T04:14:29.101Z,91.90
2017-07-15T04:16:56.525Z,91.80
2017-07-15T04:19:23.966Z,91.90
2017-07-15T04:21:51.392Z,91.80
2017-07-15T04:24:18.833Z,91.80
2017-07-15T04:26:47.033Z,92.00
2017-07-15T04:29:14.485Z,92.00
2017-07-15T04:31:41.914Z,92.00
2017-07-15T04:34:10.193Z,92.00
2017-07-15T04:36:37.617Z,92.00
2017-07-15T04:39:05.046Z,91.90
2017-07-15T04:41:32.486Z,91.80
2017-07-15T04:43:59.924Z,91.90
2017-07-15T04:46:28.127Z,91.80
2017-07-15T04:48:55.567Z,91.80
2017-07-15T04:53:55.465Z,91.70
2017-07-15T04:56:22.899Z,91.80
2017-07-15T04:58:50.350Z,91.70
2017-07-15T05:01:17.765Z,91.90
2017-07-15T05:03:45.210Z,91.70
2017-07-15T05:06:13.418Z,91.70
2017-07-15T05:08:40.835Z,91.60
2017-07-15T05:11:09.024Z,91.20
2017-07-15T05:13:36.458Z,91.20
2017-07-15T05:16:04.660Z,91.10
2017-07-15T05:18:32.077Z,91.10
2017-07-15T05:20:59.509Z,91.20
2017-07-15T05:23:26.956Z,91.20
2017-07-15T05:25:54.401Z,91.20
2017-07-15T05:28:21.827Z,91.10
2017-07-15T05:30:49.266Z,91.20
2017-07-15T05:33:17.465Z,90.90
2017-07-15T05:35:44.906Z,90.90
2017-07-15T05:38:13.106Z,91.00
2017-07-15T05:40:40.530Z,91.00
2017-07-15T05:43:07.954Z,91.00
2017-07-15T05:45:35.393Z,90.90
2017-07-15T05:48:02.818Z,90.90
2017-07-15T05:50:30.262Z,90.90
2017-07-15T05:52:58.448Z,90.90
2017-07-15T05:55:25.869Z,90.90
2017-07-15T05:57:54.070Z,90.60
2017-07-15T06:00:21.509Z,90.60
2017-07-15T06:02:49.702Z,90.70
2017-07-15T06:05:17.131Z,90.70
2017-07-15T06:07:44.558Z,90.60
2017-07-15T06:10:11.983Z,90.60
2017-07-15T06:12:39.421Z,90.40
2017-07-15T06:15:06.907Z,90.30
2017-07-15T06:17:34.333Z,90.10
2017-07-15T06:20:01.756Z,90.10
2017-07-15T06:22:29.193Z,90.30
2017-07-15T06:24:56.616Z,90.30
2017-07-15T06:27:24.108Z,90.30
2017-07-15T06:29:51.558Z,90.50
2017-07-15T06:32:18.998Z,90.70
2017-07-15T06:34:46.430Z,90.30
2017-07-15T06:37:13.853Z,90.40
2017-07-15T06:39:41.367Z,88.90
2017-07-15T06:42:08.770Z,90.00
2017-07-15T06:44:36.974Z,88.80
2017-07-15T06:47:04.405Z,89.30
2017-07-15T06:49:32.600Z,89.70
2017-07-15T06:52:00.021Z,89.60
2017-07-15T06:54:27.455Z,89.10
2017-07-15T06:56:54.881Z,89.20
2017-07-15T06:59:22.301Z,89.40
2017-07-15T07:01:50.506Z,89.50
2017-07-15T07:04:17.933Z,89.50
2017-07-15T07:06:45.373Z,89.80
2017-07-15T07:09:12.809Z,88.50
2017-07-15T07:11:40.224Z,87.50
2017-07-15T07:14:07.649Z,86.80
2017-07-15T07:16:35.846Z,85.30
2017-07-15T07:19:03.281Z,85.30
2017-07-15T07:21:31.480Z,83.60
2017-07-15T07:23:58.921Z,83.60
2017-07-15T07:26:27.120Z,83.30
2017-07-15T07:28:54.550Z,83.30
2017-07-15T07:31:21.979Z,82.50
2017-07-15T07:33:49.425Z,82.80
2017-07-15T07:36:16.845Z,79.50
2017-07-15T07:38:44.270Z,79.70
2017-07-15T07:41:11.694Z,79.50
2017-07-15T07:43:39.177Z,79.40
2017-07-15T07:46:06.630Z,79.30
2017-07-15T07:48:34.854Z,78.80
2017-07-15T07:51:02.284Z,78.40
2017-07-15T07:53:29.717Z,77.30
2017-07-15T07:55:57.921Z,79.40
2017-07-15T07:58:25.358Z,78.60
2017-07-15T08:00:52.834Z,79.40
2017-07-15T08:03:20.265Z,79.50
2017-07-15T08:05:47.706Z,79.30
2017-07-15T08:08:15.901Z,77.70
2017-07-15T08:10:43.334Z,77.70
2017-07-15T08:13:11.530Z,77.70
2017-07-15T08:15:38.957Z,77.00
2017-07-15T08:20:40.965Z,75.70
2017-07-15T08:23:08.396Z,75.70
2017-07-15T08:25:36.589Z,78.50
2017-07-15T08:28:04.037Z,77.40
2017-07-15T08:30:32.241Z,76.90
2017-07-15T08:32:59.661Z,76.90
2017-07-15T08:35:27.848Z,76.00
2017-07-15T08:37:55.284Z,76.00
2017-07-15T08:40:22.698Z,74.90
2017-07-15T08:42:50.125Z,75.00
2017-07-15T08:45:17.550Z,75.30
2017-07-15T08:47:44.974Z,74.20
2017-07-15T08:50:12.401Z,73.50
2017-07-15T08:52:39.840Z,72.00
2017-07-15T08:55:07.286Z,71.30
2017-07-15T08:57:35.519Z,69.70
2017-07-15T09:00:02.951Z,70.30
2017-07-15T09:02:30.551Z,69.30
2017-07-15T09:04:57.965Z,68.50
2017-07-15T09:07:25.434Z,67.50
2017-07-15T09:09:52.858Z,67.90
2017-07-15T09:12:20.307Z,67.60
2017-07-15T09:14:48.494Z,67.30
2017-07-15T09:17:15.910Z,67.30
2017-07-15T09:19:43.422Z,66.30
2017-07-15T09:22:10.880Z,65.40
2017-07-15T09:24:38.315Z,66.00
2017-07-15T09:27:05.738Z,67.80
2017-07-15T09:29:33.176Z,68.30
2017-07-15T09:32:00.603Z,65.70
2017-07-15T09:34:28.028Z,64.90
2017-07-15T09:36:55.461Z,63.40
2017-07-15T09:39:23.651Z,63.60
2017-07-15T09:41:51.836Z,64.30
2017-07-15T09:44:19.265Z,64.40
2017-07-15T09:46:47.457Z,62.60
2017-07-15T09:49:14.914Z,62.60
2017-07-15T09:51:43.108Z,62.00
2017-07-15T09:54:10.549Z,62.00
2017-07-15T09:56:37.965Z,63.00
2017-07-15T09:59:05.396Z,63.20
2017-07-15T10:01:32.835Z,62.90
2017-07-15T10:04:00.255Z,64.60
2017-07-15T10:06:28.462Z,64.20
2017-07-15T10:08:55.893Z,64.20
2017-07-15T10:11:24.090Z,64.10
2017-07-15T10:13:51.523Z,64.10
2017-07-15T10:16:19.711Z,62.40
2017-07-15T10:18:47.133Z,62.40
2017-07-15T10:21:15.337Z,62.30
2017-07-15T10:23:42.758Z,62.20
2017-07-15T10:26:10.191Z,62.70
2017-07-15T10:28:37.626Z,63.60
2017-07-15T10:31:05.064Z,64.70
2017-07-15T10:33:32.497Z,64.90
2017-07-15T10:35:59.942Z,65.60
2017-07-15T10:38:28.142Z,66.40
2017-07-15T10:40:55.579Z,66.40
2017-07-15T10:43:23.783Z,67.00
2017-07-15T10:46:12.621Z,66.90
2017-07-15T10:48:40.050Z,67.30
2017-07-15T10:51:07.524Z,67.20
2017-07-15T10:53:34.942Z,67.20
2017-07-15T10:56:02.371Z,67.40
2017-07-15T10:58:29.782Z,66.80
2017-07-15T11:00:57.980Z,66.80
2017-07-15T11:03:25.422Z,66.80
2017-07-15T11:05:53.605Z,63.30
2017-07-15T11:08:21.021Z,63.30
2017-07-15T11:10:48.444Z,62.10
2017-07-15T11:13:15.877Z,60.80
2017-07-15T11:15:43.303Z,59.90
2017-07-15T11:18:11.506Z,59.50
2017-07-15T11:20:38.921Z,59.40
2017-07-15T11:23:06.352Z,59.10
2017-07-15T11:25:33.778Z,57.90
2017-07-15T11:28:01.206Z,57.60
2017-07-15T11:30:29.430Z,57.30
2017-07-15T11:32:56.852Z,57.30
2017-07-15T11:35:24.277Z,56.10
2017-07-15T11:37:51.718Z,55.60
2017-07-15T11:40:19.158Z,54.40
2017-07-15T11:42:46.595Z,55.20
2017-07-15T11:45:14.016Z,54.30
2017-07-15T11:47:42.209Z,52.70
2017-07-15T11:50:09.701Z,52.60
2017-07-15T11:52:37.133Z,53.40
2017-07-15T11:55:04.561Z,52.90
2017-07-15T11:57:32.762Z,53.20
2017-07-15T12:00:00.246Z,53.20
2017-07-15T12:02:27.670Z,52.70
2017-07-15T12:04:55.103Z,52.10
2017-07-15T12:07:23.281Z,51.90
2017-07-15T12:09:50.706Z,51.40
2017-07-15T12:12:18.135Z,50.80
2017-07-15T12:14:45.587Z,52.00
2017-07-15T12:17:13.013Z,51.80
2017-07-15T12:19:40.430Z,52.30
2017-07-15T12:22:07.852Z,51.50
2017-07-15T12:24:35.281Z,50.30
2017-07-15T12:27:02.717Z,51.00
2017-07-15T12:29:30.913Z,52.30
2017-07-15T12:31:58.338Z,52.30
2017-07-15T12:34:25.774Z,53.70
2017-07-15T12:36:53.214Z,54.30
2017-07-15T12:39:20.637Z,55.00
2017-07-15T12:41:48.065Z,55.40
2017-07-15T12:44:15.525Z,55.40
2017-07-15T12:46:42.940Z,54.80
2017-07-15T12:49:10.375Z,54.10
2017-07-15T12:51:37.796Z,54.20
2017-07-15T12:54:05.986Z,52.70
2017-07-15T12:56:33.414Z,52.70
2017-07-15T12:59:01.605Z,49.60
2017-07-15T13:01:29.042Z,49.90
2017-07-15T13:03:56.506Z,48.40
2017-07-15T13:06:24.694Z,41.50
2017-07-15T13:08:53.561Z,38.20
2017-07-15T13:11:20.989Z,38.10
2017-07-15T13:13:48.414Z,35.80
2017-07-15T13:16:16.006Z,36.80
2017-07-15T13:18:44.206Z,35.00
2017-07-15T13:21:11.698Z,34.70
2017-07-15T13:23:39.144Z,34.30
2017-07-15T13:26:06.574Z,36.70
2017-07-15T13:28:34.075Z,37.90
2017-07-15T13:31:01.521Z,35.40
2017-07-15T13:33:28.975Z,32.80
2017-07-15T13:35:56.403Z,32.30
2017-07-15T13:38:23.839Z,35.20
2017-07-15T13:40:52.039Z,41.90
2017-07-15T13:43:19.472Z,41.90
2017-07-15T13:45:47.700Z,46.90
2017-07-15T13:48:15.136Z,46.80
2017-07-15T13:50:42.619Z,47.20
2017-07-15T13:53:10.123Z,44.90
2017-07-15T13:55:38.311Z,38.20
2017-07-15T13:58:05.741Z,38.20
2017-07-15T14:00:34.006Z,32.70
2017-07-15T14:03:08.177Z,32.60
2017-07-15T14:05:36.510Z,32.50
2017-07-15T14:08:04.017Z,31.80
2017-07-15T14:10:31.570Z,31.50
2017-07-15T14:12:59.030Z,30.70
2017-07-15T14:15:26.450Z,30.80
2017-07-15T14:17:53.888Z,30.30
2017-07-15T14:20:21.296Z,30.00
2017-07-15T14:22:48.753Z,30.30
2017-07-15T14:25:16.176Z,31.30
2017-07-15T14:27:43.660Z,31.60
2017-07-15T14:30:11.212Z,31.60
2017-07-15T14:32:38.621Z,30.90
2017-07-15T14:35:06.882Z,35.50
2017-07-15T14:37:34.405Z,35.40
2017-07-15T14:40:01.846Z,38.60
2017-07-15T14:42:29.279Z,41.30
2017-07-15T14:44:57.502Z,44.60
2017-07-15T14:47:24.925Z,44.50
2017-07-15T14:49:52.421Z,45.40
2017-07-15T14:52:19.849Z,46.30
2017-07-15T14:54:47.266Z,46.80
2017-07-15T14:57:14.695Z,47.40
2017-07-15T14:59:42.129Z,48.20
2017-07-15T15:02:09.555Z,48.70
2017-07-15T15:04:36.993Z,49.00
2017-07-15T15:07:05.191Z,49.40
2017-07-15T15:09:32.601Z,49.40
2017-07-15T15:12:00.113Z,49.60
2017-07-15T15:14:27.541Z,49.90
2017-07-15T15:16:54.963Z,50.10
2017-07-15T15:19:22.392Z,50.10
2017-07-15T15:21:49.810Z,49.00
2017-07-15T15:24:17.257Z,48.70
2017-07-15T15:26:45.453Z,48.80
2017-07-15T15:29:12.884Z,48.20
2017-07-15T15:31:41.076Z,48.10
2017-07-15T15:34:08.510Z,48.00
2017-07-15T15:36:36.706Z,48.80
2017-07-15T15:39:04.126Z,48.70
2017-07-15T15:41:31.541Z,49.20
2017-07-15T15:43:59.018Z,49.10
2017-07-15T15:46:26.432Z,49.30
2017-07-15T15:48:53.857Z,49.40
2017-07-15T15:51:22.052Z,49.70
2017-07-15T15:53:49.482Z,49.50
2017-07-15T15:56:17.015Z,49.70
2017-07-15T15:58:44.441Z,49.60
2017-07-15T16:01:11.849Z,48.90
2017-07-15T16:03:39.264Z,46.60
2017-07-15T16:06:06.697Z,44.50
2017-07-15T16:08:34.113Z,43.40
2017-07-15T16:11:01.668Z,43.40
2017-07-15T16:13:29.098Z,44.10
2017-07-15T16:15:56.557Z,44.80
2017-07-15T16:18:23.996Z,45.50
2017-07-15T16:20:51.473Z,45.30
2017-07-15T16:23:18.898Z,45.10
2017-07-15T16:25:46.317Z,45.10
2017-07-15T16:28:14.499Z,44.30
2017-07-15T16:30:42.693Z,44.30
2017-07-15T16:33:10.117Z,44.30
2017-07-15T16:35:38.369Z,45.00
2017-07-15T16:38:05.808Z,44.70
2017-07-15T16:40:33.229Z,45.20
2017-07-15T16:43:00.653Z,45.10
2017-07-15T16:45:29.580Z,44.40
2017-07-15T16:47:57.066Z,44.30
2017-07-15T16:50:24.509Z,45.00
2017-07-15T16:52:51.949Z,44.90
2017-07-15T16:55:19.374Z,44.90
2017-07-15T16:57:46.802Z,44.90
2017-07-15T17:00:14.223Z,45.10
2017-07-15T17:02:41.643Z,45.20
2017-07-15T17:05:09.069Z,45.70
2017-07-15T17:07:36.495Z,45.60
2017-07-15T17:10:03.921Z,46.20
2017-07-15T17:12:32.117Z,46.90
2017-07-15T17:14:59.526Z,46.80
2017-07-15T17:17:27.066Z,47.00
2017-07-15T17:19:54.482Z,46.70
2017-07-15T17:22:21.918Z,46.80
2017-07-15T17:24:50.334Z,46.50
2017-07-15T17:27:17.790Z,46.50
2017-07-15T17:29:45.195Z,46.90
2017-07-15T17:32:12.626Z,47.00
2017-07-15T17:34:40.054Z,46.60
2017-07-15T17:37:07.513Z,46.00
2017-07-15T17:39:34.973Z,46.20
2017-07-15T17:42:02.417Z,45.50
2017-07-15T17:44:29.831Z,46.00
2017-07-15T17:46:58.019Z,45.50
2017-07-15T17:49:26.209Z,45.90
2017-07-15T17:51:53.637Z,45.90
2017-07-15T17:54:21.853Z,46.90
2017-07-15T17:56:49.282Z,46.30
2017-07-15T17:59:16.709Z,46.40
2017-07-15T18:01:44.152Z,46.40
2017-07-15T18:04:11.585Z,46.20
2017-07-15T18:06:38.993Z,45.90
2017-07-15T18:09:06.433Z,45.80
2017-07-15T18:11:33.859Z,46.40
2017-07-15T18:14:01.403Z,46.60
2017-07-15T18:16:28.813Z,47.20
2017-07-15T18:18:56.996Z,47.50
2017-07-15T18:21:25.223Z,48.10
2017-07-15T18:26:26.642Z,48.60
2017-07-15T18:28:54.078Z,49.40
2017-07-15T18:31:22.437Z,50.50
2017-07-15T18:33:49.861Z,51.40
2017-07-15T18:36:17.312Z,52.10
2017-07-15T18:38:44.792Z,52.90
2017-07-15T18:41:12.232Z,53.30
2017-07-15T18:43:39.657Z,53.70
2017-07-15T18:46:07.081Z,53.90
2017-07-15T18:48:34.509Z,54.20
2017-07-15T18:51:01.941Z,54.60
2017-07-15T18:53:29.417Z,54.90
2017-07-15T18:55:56.844Z,55.40
2017-07-15T18:58:24.335Z,55.60
2017-07-15T19:00:51.748Z,55.80
2017-07-15T19:03:19.186Z,56.40
2017-07-15T19:05:46.652Z,56.80
2017-07-15T19:08:14.073Z,56.90
2017-07-15T19:10:41.516Z,57.30
2017-07-15T19:13:09.077Z,57.70
2017-07-15T19:15:36.521Z,57.90
2017-07-15T19:18:03.953Z,58.00
2017-07-15T19:20:32.144Z,58.60
2017-07-15T19:23:05.918Z,58.50
2017-07-15T19:25:33.375Z,58.90
2017-07-15T19:28:00.831Z,59.20
2017-07-15T19:30:28.253Z,59.30
2017-07-15T19:32:55.676Z,59.60
2017-07-15T19:35:23.104Z,59.80
2017-07-15T19:37:51.352Z,60.10
2017-07-15T19:40:18.763Z,60.10
2017-07-15T19:42:46.247Z,60.50
2017-07-15T19:45:13.788Z,61.80
2017-07-15T19:50:22.838Z,61.20
2017-07-15T19:52:50.261Z,62.00
2017-07-15T19:55:18.545Z,62.70
2017-07-15T19:57:46.842Z,63.00
2017-07-15T20:00:14.331Z,63.00
2017-07-15T20:02:41.947Z,63.00
2017-07-15T20:05:09.431Z,63.10
2017-07-15T20:07:36.989Z,63.40
2017-07-15T20:10:04.438Z,63.60
2017-07-15T20:12:31.965Z,63.90
2017-07-15T20:15:00.243Z,64.00
2017-07-15T20:17:28.556Z,64.30
2017-07-15T20:19:56.025Z,64.40
2017-07-15T20:22:23.588Z,64.10
2017-07-15T20:24:51.135Z,64.10
2017-07-15T20:27:18.582Z,65.00
2017-07-15T20:29:46.084Z,65.00
2017-07-15T20:32:13.543Z,65.00
2017-07-15T20:34:41.904Z,64.80
2017-07-15T20:37:13.399Z,64.80
2017-07-15T20:39:40.845Z,65.70
2017-07-15T20:42:08.367Z,65.70
2017-07-15T20:44:36.702Z,66.90
2017-07-15T20:47:04.213Z,65.80
2017-07-15T20:49:32.580Z,66.60
2017-07-15T20:52:15.755Z,66.60
2017-07-15T20:54:43.174Z,67.10
2017-07-15T20:57:11.425Z,65.80
2017-07-15T20:59:38.899Z,66.40
2017-07-15T21:02:07.265Z,66.70
2017-07-15T21:04:34.782Z,66.00
2017-07-15T21:07:02.228Z,66.10
2017-07-15T21:09:29.693Z,66.70
2017-07-15T21:11:57.157Z,66.20
2017-07-15T21:14:24.610Z,66.30
2017-07-15T21:16:52.117Z,65.90
2017-07-15T21:19:19.587Z,65.60
2017-07-15T21:21:58.662Z,65.80
2017-07-15T21:24:32.085Z,65.80
2017-07-15T21:27:00.897Z,66.00
2017-07-15T21:29:32.079Z,66.30
2017-07-15T21:31:59.489Z,66.80
2017-07-15T21:34:26.922Z,67.60
2017-07-15T21:36:54.356Z,67.20
2017-07-15T21:39:21.786Z,67.80
2017-07-15T21:41:50.006Z,68.70
2017-07-15T21:44:17.427Z,68.70
2017-07-15T21:46:44.966Z,69.30
2017-07-15T21:49:13.176Z,70.40
2017-07-15T21:51:40.616Z,70.80
2017-07-15T21:54:08.030Z,71.60
2017-07-15T21:56:35.466Z,72.00
2017-07-15T21:59:03.881Z,72.40
2017-07-15T22:01:31.539Z,72.70
2017-07-15T22:03:58.969Z,72.50
2017-07-15T22:06:26.433Z,72.80
2017-07-15T22:08:53.915Z,71.80
2017-07-15T22:11:21.385Z,71.40
2017-07-15T22:13:49.214Z,71.40
2017-07-15T22:16:17.628Z,73.20
2017-07-15T22:18:45.042Z,73.20
2017-07-15T22:21:12.469Z,73.80
2017-07-15T22:23:40.020Z,74.40
2017-07-15T22:26:07.450Z,74.40
2017-07-15T22:28:34.913Z,74.00
2017-07-15T22:31:02.361Z,72.90
2017-07-15T22:33:29.819Z,73.10
2017-07-15T22:35:57.257Z,73.00
2017-07-15T22:38:24.754Z,75.70
2017-07-15T22:40:52.181Z,75.40
2017-07-15T22:43:20.266Z,75.50
2017-07-15T22:45:47.679Z,75.20
2017-07-15T22:48:15.164Z,76.10
2017-07-15T22:50:42.594Z,76.00
2017-07-15T22:53:10.019Z,76.20
2017-07-15T22:55:37.446Z,75.90
2017-07-15T22:58:04.884Z,75.80
2017-07-15T23:00:32.392Z,76.90
2017-07-15T23:03:00.581Z,76.90
2017-07-15T23:05:28.029Z,76.60
2017-07-15T23:07:56.209Z,77.40
2017-07-15T23:10:24.419Z,77.70
2017-07-15T23:12:51.842Z,77.60
2017-07-15T23:15:19.270Z,77.80
2017-07-15T23:17:46.703Z,78.30
2017-07-15T23:20:14.130Z,78.80
2017-07-15T23:22:41.554Z,79.60
2017-07-15T23:25:09.745Z,80.70
2017-07-15T23:27:37.184Z,80.60
2017-07-15T23:30:04.603Z,80.60
2017-07-15T23:32:32.029Z,80.40
2017-07-15T23:34:59.454Z,81.30
2017-07-15T23:37:27.662Z,82.00
2017-07-15T23:39:55.091Z,82.00
2017-07-15T23:42:22.527Z,82.70
2017-07-15T23:44:49.955Z,82.90
2017-07-15T23:47:17.467Z,83.30
2017-07-15T23:49:45.638Z,83.20
2017-07-15T23:52:13.062Z,83.10
2017-07-15T23:54:40.490Z,83.40
2017-07-15T23:57:07.918Z,83.30
2017-07-15T23:59:35.341Z,83.40
